createdAt,value
2019-05-14T00:00:13.019Z,4.10
2019-05-14T00:02:41.890Z,4.10
2019-05-14T00:05:12.172Z,4.20
2019-05-14T00:07:41.540Z,4.30
2019-05-14T00:10:11.876Z,4.10
2019-05-14T00:12:41.845Z,4.20
2019-05-14T00:15:11.615Z,3.90
2019-05-14T00:17:41.586Z,3.90
2019-05-14T00:20:13.334Z,3.90
2019-05-14T00:22:42.033Z,4.30
2019-05-14T00:25:11.730Z,4.00
2019-05-14T00:27:41.420Z,4.00
2019-05-14T00:30:11.458Z,3.90
2019-05-14T00:32:41.431Z,3.70
2019-05-14T00:35:12.104Z,4.00
2019-05-14T00:37:41.453Z,3.70
2019-05-14T00:40:11.762Z,3.80
2019-05-14T00:42:41.647Z,3.70
2019-05-14T00:45:11.554Z,3.80
2019-05-14T00:47:41.772Z,4.00
2019-05-14T00:50:11.440Z,3.70
2019-05-14T00:52:44.275Z,4.00
2019-05-14T00:55:11.751Z,3.70
2019-05-14T00:57:42.523Z,3.60
2019-05-14T01:00:11.759Z,3.80
2019-05-14T01:02:41.621Z,3.90
2019-05-14T01:05:12.455Z,3.70
2019-05-14T01:07:51.226Z,3.70
2019-05-14T01:10:21.971Z,3.50
2019-05-14T01:12:52.090Z,3.40
2019-05-14T01:15:21.696Z,3.40
2019-05-14T01:17:51.576Z,3.70
2019-05-14T01:20:21.392Z,3.30
2019-05-14T01:22:51.634Z,3.70
2019-05-14T01:25:23.727Z,3.30
2019-05-14T01:27:51.838Z,3.50
2019-05-14T01:30:21.374Z,3.40
2019-05-14T01:32:51.163Z,3.60
2019-05-14T01:35:22.213Z,3.40
2019-05-14T01:37:52.257Z,3.60
2019-05-14T01:40:21.885Z,3.50
2019-05-14T01:42:52.211Z,3.90
2019-05-14T01:45:27.783Z,4.00
2019-05-14T01:47:52.124Z,3.70
2019-05-14T01:50:21.529Z,3.60
2019-05-14T01:52:52.029Z,3.40
2019-05-14T01:55:22.051Z,3.30
2019-05-14T01:57:51.820Z,3.40
2019-05-14T02:00:22.056Z,3.70
2019-05-14T02:02:52.487Z,3.50
2019-05-14T02:05:21.804Z,3.20
2019-05-14T02:07:52.618Z,3.10
2019-05-14T02:10:22.074Z,3.30
2019-05-14T02:12:51.684Z,3.00
2019-05-14T02:15:21.434Z,3.00
2019-05-14T02:17:51.853Z,3.00
2019-05-14T02:20:21.535Z,3.30
2019-05-14T02:22:52.459Z,3.10
2019-05-14T02:25:21.644Z,3.20
2019-05-14T02:27:51.950Z,3.10
2019-05-14T02:30:28.417Z,3.30
2019-05-14T02:32:51.583Z,3.00
2019-05-14T02:35:20.430Z,3.20
2019-05-14T02:37:50.417Z,3.20
2019-05-14T02:40:20.395Z,3.40
2019-05-14T02:42:49.979Z,3.00
2019-05-14T02:45:19.967Z,3.10
2019-05-14T02:47:50.350Z,3.20
2019-05-14T02:50:20.224Z,3.00
2019-05-14T02:52:49.781Z,3.40
2019-05-14T02:55:19.315Z,3.20
2019-05-14T02:57:50.032Z,2.80
2019-05-14T03:00:19.702Z,3.00
2019-05-14T03:02:49.384Z,2.90
2019-05-14T03:05:19.162Z,2.90
2019-05-14T03:07:50.605Z,2.90
2019-05-14T03:10:19.621Z,2.90
2019-05-14T03:12:54.572Z,3.00
2019-05-14T03:15:23.365Z,2.50
2019-05-14T03:17:52.302Z,2.60
2019-05-14T03:20:21.197Z,2.40
2019-05-14T03:23:02.589Z,2.20
2019-05-14T03:25:20.725Z,2.20
2019-05-14T03:27:50.003Z,1.90
2019-05-14T03:30:22.733Z,2.10
2019-05-14T03:32:52.708Z,1.80
2019-05-14T03:35:24.296Z,2.00
2019-05-14T03:37:51.574Z,1.70
2019-05-14T03:40:20.503Z,2.00
2019-05-14T03:42:49.464Z,1.90
2019-05-14T03:45:19.478Z,2.00
2019-05-14T03:47:51.574Z,2.20
2019-05-14T03:50:20.447Z,2.10
2019-05-14T03:52:50.079Z,2.20
2019-05-14T03:55:20.147Z,2.20
2019-05-14T03:57:50.163Z,2.20
2019-05-14T04:00:23.185Z,2.60
2019-05-14T04:02:52.267Z,2.50
2019-05-14T04:05:22.627Z,2.40
2019-05-14T04:07:52.279Z,2.60
2019-05-14T04:10:21.645Z,2.60
2019-05-14T04:12:52.649Z,2.40
2019-05-14T04:15:25.166Z,2.50
2019-05-14T04:17:55.197Z,2.70
2019-05-14T04:20:25.528Z,2.70
2019-05-14T04:22:55.886Z,3.00
2019-05-14T04:25:29.647Z,3.40
2019-05-14T04:28:01.089Z,3.30
2019-05-14T04:30:33.324Z,3.50
2019-05-14T04:33:03.879Z,3.80
2019-05-14T04:35:33.002Z,4.00
2019-05-14T04:38:01.923Z,3.90
2019-05-14T04:40:30.793Z,3.90
2019-05-14T04:42:59.676Z,4.30
2019-05-14T04:45:29.721Z,4.20
2019-05-14T04:48:00.107Z,4.50
2019-05-14T04:50:29.762Z,4.60
2019-05-14T04:52:59.900Z,4.70
2019-05-14T04:55:29.798Z,4.40
2019-05-14T04:57:59.221Z,4.70
2019-05-14T05:00:30.503Z,4.60
2019-05-14T05:02:59.956Z,4.80
2019-05-14T05:05:29.945Z,4.70
2019-05-14T05:07:59.824Z,4.90
2019-05-14T05:10:29.810Z,5.00
2019-05-14T05:12:58.893Z,5.10
2019-05-14T05:15:29.042Z,5.20
2019-05-14T05:17:58.966Z,5.40
2019-05-14T05:20:29.169Z,5.30
2019-05-14T05:22:59.112Z,5.40
2019-05-14T05:25:29.224Z,5.50
2019-05-14T05:27:59.752Z,5.70
2019-05-14T05:30:29.443Z,5.80
2019-05-14T05:32:59.666Z,5.70
2019-05-14T05:35:29.211Z,6.00
2019-05-14T05:37:58.384Z,6.10
2019-05-14T05:40:28.768Z,6.20
2019-05-14T05:42:58.788Z,6.60
2019-05-14T05:45:29.031Z,6.30
2019-05-14T05:48:01.092Z,6.40
2019-05-14T05:50:28.874Z,6.40
2019-05-14T05:52:58.529Z,6.70
2019-05-14T05:55:28.813Z,6.70
2019-05-14T05:57:59.848Z,6.50
2019-05-14T06:00:39.692Z,6.60
2019-05-14T06:03:10.685Z,6.70
2019-05-14T06:05:39.081Z,6.70
2019-05-14T06:08:08.705Z,6.70
2019-05-14T06:10:39.869Z,6.70
2019-05-14T06:13:08.934Z,6.70
2019-05-14T06:15:45.738Z,7.00
2019-05-14T06:18:15.264Z,7.20
2019-05-14T06:20:38.942Z,7.10
2019-05-14T06:23:10.510Z,7.10
2019-05-14T06:25:40.112Z,7.20
2019-05-14T06:28:09.195Z,7.10
2019-05-14T06:30:39.543Z,7.80
2019-05-14T06:33:09.359Z,7.40
2019-05-14T06:35:40.676Z,7.80
2019-05-14T06:38:09.472Z,7.60
2019-05-14T06:40:39.571Z,7.90
2019-05-14T06:43:11.066Z,7.70
2019-05-14T06:45:39.865Z,7.60
2019-05-14T06:48:08.873Z,7.90
2019-05-14T06:50:40.795Z,7.70
2019-05-14T06:53:09.604Z,7.80
2019-05-14T06:55:39.284Z,7.60
2019-05-14T06:58:09.177Z,7.60
2019-05-14T07:00:39.390Z,7.80
2019-05-14T07:03:09.011Z,8.20
2019-05-14T07:05:38.966Z,8.20
2019-05-14T07:08:08.940Z,8.20
2019-05-14T07:10:39.485Z,8.40
2019-05-14T07:13:08.718Z,8.40
2019-05-14T07:15:38.618Z,8.40
2019-05-14T07:18:08.620Z,8.50
2019-05-14T07:20:39.241Z,8.50
2019-05-14T07:23:08.409Z,8.60
2019-05-14T07:25:39.359Z,8.60
2019-05-14T07:28:08.897Z,8.60
2019-05-14T07:30:39.640Z,8.50
2019-05-14T07:33:09.427Z,8.40
2019-05-14T07:35:38.643Z,8.60
2019-05-14T07:38:09.037Z,8.50
2019-05-14T07:40:39.264Z,8.70
2019-05-14T07:43:09.047Z,8.80
2019-05-14T07:45:38.618Z,8.60
2019-05-14T07:48:09.705Z,8.80
2019-05-14T07:50:39.674Z,9.20
2019-05-14T07:53:09.099Z,9.10
2019-05-14T07:55:38.598Z,8.80
2019-05-14T07:58:08.511Z,8.80
2019-05-14T08:00:39.953Z,9.20
2019-05-14T08:03:08.273Z,9.30
2019-05-14T08:05:38.958Z,9.20
2019-05-14T08:08:08.122Z,9.50
2019-05-14T08:10:39.069Z,9.60
2019-05-14T08:13:08.481Z,9.90
2019-05-14T08:15:38.651Z,10.20
2019-05-14T08:18:08.186Z,10.40
2019-05-14T08:20:38.036Z,10.30
2019-05-14T08:23:09.066Z,10.10
2019-05-14T08:25:38.992Z,9.80
2019-05-14T08:28:08.243Z,9.90
2019-05-14T08:30:38.866Z,9.90
2019-05-14T08:33:08.918Z,9.80
2019-05-14T08:35:39.532Z,9.90
2019-05-14T08:38:12.034Z,9.70
2019-05-14T08:40:39.484Z,9.80
2019-05-14T08:43:08.620Z,10.20
2019-05-14T08:45:38.951Z,10.40
2019-05-14T08:48:09.174Z,10.60
2019-05-14T08:50:38.739Z,10.70
2019-05-14T08:53:09.059Z,10.60
2019-05-14T08:55:38.366Z,10.50
2019-05-14T08:58:13.457Z,10.30
2019-05-14T09:00:39.476Z,10.30
2019-05-14T09:03:08.656Z,10.60
2019-05-14T09:05:38.673Z,10.60
2019-05-14T09:08:08.838Z,10.70
2019-05-14T09:10:40.290Z,10.80
2019-05-14T09:13:08.668Z,10.80
2019-05-14T09:15:38.473Z,10.90
2019-05-14T09:18:11.488Z,11.20
2019-05-14T09:20:38.260Z,11.50
2019-05-14T09:23:09.136Z,11.80
2019-05-14T09:25:46.595Z,11.60
2019-05-14T09:28:09.095Z,11.40
2019-05-14T09:30:38.237Z,11.50
2019-05-14T09:33:08.596Z,11.50
2019-05-14T09:35:39.804Z,11.50
2019-05-14T09:38:08.906Z,11.70
2019-05-14T09:40:39.632Z,11.90
2019-05-14T09:43:09.173Z,11.80
2019-05-14T09:45:38.843Z,11.50
2019-05-14T09:48:08.872Z,11.20
2019-05-14T09:50:38.495Z,10.80
2019-05-14T09:53:09.666Z,10.80
2019-05-14T09:55:40.433Z,10.90
2019-05-14T09:58:09.238Z,11.20
2019-05-14T10:00:38.997Z,11.00
2019-05-14T10:03:09.633Z,10.40
2019-05-14T10:05:39.160Z,10.30
2019-05-14T10:08:08.999Z,10.20
2019-05-14T10:10:39.908Z,10.40
2019-05-14T10:13:09.747Z,11.10
2019-05-14T10:15:39.172Z,11.80
2019-05-14T10:18:11.953Z,12.30
2019-05-14T10:20:45.293Z,12.00
2019-05-14T10:23:12.602Z,11.20
2019-05-14T10:25:42.540Z,10.70
2019-05-14T10:28:11.497Z,10.70
2019-05-14T10:30:40.696Z,11.00
2019-05-14T10:33:14.701Z,11.30
2019-05-14T10:35:40.201Z,11.60
2019-05-14T10:38:09.186Z,11.20
2019-05-14T10:40:38.674Z,10.80
2019-05-14T10:43:09.175Z,10.50
2019-05-14T10:45:38.605Z,10.30
2019-05-14T10:48:13.408Z,10.00
2019-05-14T10:50:56.154Z,9.90
2019-05-14T10:53:13.108Z,10.00
2019-05-14T10:55:41.976Z,10.20
2019-05-14T10:58:10.755Z,10.90
2019-05-14T11:00:41.855Z,12.00
2019-05-14T11:03:10.207Z,12.70
2019-05-14T11:05:41.548Z,12.30
2019-05-14T11:08:11.979Z,11.90
2019-05-14T11:10:42.261Z,11.70
2019-05-14T11:13:10.746Z,11.80
2019-05-14T11:15:39.813Z,12.00
2019-05-14T11:18:08.869Z,11.90
2019-05-14T11:20:41.733Z,11.90
2019-05-14T11:23:08.933Z,12.10
2019-05-14T11:25:39.360Z,12.10
2019-05-14T11:28:14.327Z,12.20
2019-05-14T11:30:43.275Z,12.70
2019-05-14T11:33:12.083Z,12.80
2019-05-14T11:35:40.964Z,12.50
2019-05-14T11:38:27.900Z,11.90
2019-05-14T11:40:40.395Z,11.40
2019-05-14T11:43:09.388Z,11.50
2019-05-14T11:45:39.277Z,12.00
2019-05-14T11:48:08.882Z,12.30
2019-05-14T11:50:37.893Z,12.80
2019-05-14T11:53:08.498Z,13.20
2019-05-14T11:55:38.881Z,12.90
2019-05-14T11:58:08.774Z,13.00
2019-05-14T12:00:38.762Z,13.00
2019-05-14T12:03:09.225Z,12.50
2019-05-14T12:05:38.859Z,11.90
2019-05-14T12:08:08.634Z,11.50
2019-05-14T12:10:40.696Z,10.90
2019-05-14T12:13:09.582Z,10.60
2019-05-14T12:15:38.994Z,10.40
2019-05-14T12:18:10.328Z,10.50
2019-05-14T12:20:39.552Z,10.60
2019-05-14T12:23:11.751Z,10.80
2019-05-14T12:25:40.551Z,11.40
2019-05-14T12:28:13.673Z,12.00
2019-05-14T12:30:40.133Z,12.10
2019-05-14T12:33:08.988Z,12.00
2019-05-14T12:35:40.204Z,11.70
2019-05-14T12:38:10.031Z,11.40
2019-05-14T12:40:39.084Z,11.40
2019-05-14T12:43:09.569Z,11.30
2019-05-14T12:45:39.388Z,11.40
2019-05-14T12:48:11.556Z,11.40
2019-05-14T12:50:40.502Z,11.40
2019-05-14T12:53:09.557Z,11.20
2019-05-14T12:55:40.014Z,11.00
2019-05-14T12:58:09.107Z,11.10
2019-05-14T13:00:39.403Z,11.50
2019-05-14T13:03:09.159Z,12.30
2019-05-14T13:05:39.367Z,13.00
2019-05-14T13:08:11.379Z,13.40
2019-05-14T13:10:54.338Z,13.30
2019-05-14T13:13:29.444Z,13.00
2019-05-14T13:15:58.369Z,12.40
2019-05-14T13:18:38.809Z,12.10
2019-05-14T13:21:09.211Z,11.80
2019-05-14T13:23:44.291Z,11.40
2019-05-14T13:26:15.229Z,11.30
2019-05-14T13:28:51.031Z,11.40
2019-05-14T13:31:38.740Z,11.40
2019-05-14T13:34:10.893Z,11.20
2019-05-14T13:37:02.938Z,11.20
2019-05-14T13:39:44.057Z,11.00
2019-05-14T13:42:25.265Z,11.00
2019-05-14T13:44:58.337Z,10.90
2019-05-14T13:47:28.806Z,11.10
2019-05-14T13:50:05.256Z,11.50
2019-05-14T13:52:34.779Z,12.00
2019-05-14T13:55:10.100Z,12.10
2019-05-14T13:57:54.503Z,12.00
2019-05-14T14:00:24.848Z,11.90
2019-05-14T14:03:19.993Z,11.60
2019-05-14T14:05:54.386Z,11.50
2019-05-14T14:08:23.341Z,11.60
2019-05-14T14:11:31.476Z,11.70
2019-05-14T14:14:03.962Z,11.50
2019-05-14T14:16:39.572Z,11.40
2019-05-14T14:19:08.868Z,11.30
2019-05-14T14:21:39.698Z,11.20
2019-05-14T14:24:09.607Z,11.30
2019-05-14T14:26:39.317Z,11.40
2019-05-14T14:29:09.204Z,11.70
2019-05-14T14:31:41.396Z,12.00
2019-05-14T14:34:09.300Z,12.40
2019-05-14T14:36:38.745Z,12.40
2019-05-14T14:39:09.754Z,13.00
2019-05-14T14:41:38.622Z,13.10
2019-05-14T14:44:14.065Z,12.70
2019-05-14T14:46:42.917Z,12.00
2019-05-14T14:49:11.801Z,11.40
2019-05-14T14:51:44.651Z,10.80
2019-05-14T14:54:15.698Z,10.30
2019-05-14T14:56:41.725Z,9.90
2019-05-14T14:59:10.591Z,9.90
2019-05-14T15:01:40.460Z,10.20
2019-05-14T15:04:13.641Z,10.70
2019-05-14T15:06:41.506Z,11.20
2019-05-14T15:09:10.340Z,11.60
2019-05-14T15:11:39.781Z,12.00
2019-05-14T15:14:08.768Z,12.30
2019-05-14T15:16:39.071Z,12.30
2019-05-14T15:19:09.441Z,12.50
2019-05-14T15:21:38.652Z,12.20
2019-05-14T15:24:15.160Z,12.10
2019-05-14T15:26:38.062Z,11.80
2019-05-14T15:29:09.793Z,11.40
2019-05-14T15:31:38.614Z,11.10
2019-05-14T15:34:08.948Z,10.70
2019-05-14T15:36:41.328Z,10.40
2019-05-14T15:39:09.816Z,10.20
2019-05-14T15:41:39.516Z,10.10
2019-05-14T15:44:09.014Z,10.40
2019-05-14T15:46:41.777Z,11.00
2019-05-14T15:49:09.088Z,11.70
2019-05-14T15:51:39.788Z,12.20
2019-05-14T15:54:34.604Z,12.50
2019-05-14T15:56:39.625Z,12.60
2019-05-14T15:59:08.918Z,12.80
2019-05-14T16:01:39.764Z,12.80
2019-05-14T16:04:11.444Z,12.70
2019-05-14T16:06:39.189Z,12.30
2019-05-14T16:09:08.081Z,11.70
2019-05-14T16:11:39.403Z,11.30
2019-05-14T16:14:10.349Z,11.10
2019-05-14T16:16:39.311Z,11.00
2019-05-14T16:19:08.324Z,10.80
2019-05-14T16:21:38.526Z,10.80
2019-05-14T16:24:08.425Z,10.80
2019-05-14T16:26:37.418Z,10.70
2019-05-14T16:29:12.407Z,10.80
2019-05-14T16:31:43.573Z,11.10
2019-05-14T16:34:18.151Z,11.20
2019-05-14T16:36:48.782Z,11.10
2019-05-14T16:39:19.187Z,11.10
2019-05-14T16:41:49.756Z,10.90
2019-05-14T16:44:18.970Z,10.70
2019-05-14T16:46:48.544Z,10.70
2019-05-14T16:49:18.536Z,10.90
2019-05-14T16:51:49.538Z,11.00
2019-05-14T16:54:18.409Z,11.10
2019-05-14T16:56:48.277Z,11.30
2019-05-14T16:59:18.613Z,11.30
2019-05-14T17:01:50.013Z,11.20
2019-05-14T17:04:19.134Z,11.10
2019-05-14T17:06:49.489Z,11.00
2019-05-14T17:09:19.056Z,10.90
2019-05-14T17:11:50.188Z,10.80
2019-05-14T17:14:19.012Z,10.60
2019-05-14T17:16:49.055Z,10.30
2019-05-14T17:19:18.736Z,10.00
2019-05-14T17:21:48.709Z,9.70
2019-05-14T17:24:20.043Z,9.50
2019-05-14T17:26:48.904Z,9.50
2019-05-14T17:29:19.171Z,9.60
2019-05-14T17:31:50.666Z,9.80
2019-05-14T17:34:19.579Z,10.00
2019-05-14T17:36:48.717Z,10.20
2019-05-14T17:39:18.801Z,10.40
2019-05-14T17:41:48.512Z,10.60
2019-05-14T17:44:17.559Z,10.80
2019-05-14T17:46:48.697Z,10.70
2019-05-14T17:49:19.222Z,10.40
2019-05-14T17:51:50.826Z,10.20
2019-05-14T17:54:19.709Z,10.00
2019-05-14T17:56:48.741Z,9.70
2019-05-14T17:59:19.106Z,9.50
2019-05-14T18:01:51.268Z,9.30
2019-05-14T18:04:20.049Z,9.20
2019-05-14T18:06:49.037Z,9.10
2019-05-14T18:09:19.762Z,9.00
2019-05-14T18:11:49.111Z,8.90
2019-05-14T18:14:19.050Z,8.90
2019-05-14T18:16:49.798Z,8.90
2019-05-14T18:19:18.585Z,8.70
2019-05-14T18:21:53.278Z,8.60
2019-05-14T18:24:22.284Z,8.40
2019-05-14T18:26:51.222Z,8.30
2019-05-14T18:29:21.074Z,8.30
2019-05-14T18:31:55.902Z,8.20
2019-05-14T18:34:24.789Z,8.10
2019-05-14T18:36:53.762Z,8.10
2019-05-14T18:39:23.357Z,8.20
2019-05-14T18:41:52.267Z,8.10
2019-05-14T18:44:21.196Z,7.80
2019-05-14T18:46:50.466Z,7.80
2019-05-14T18:49:19.627Z,7.90
2019-05-14T18:51:54.770Z,7.60
2019-05-14T18:54:23.847Z,7.90
2019-05-14T18:56:52.636Z,7.50
2019-05-14T18:59:21.697Z,7.50
2019-05-14T19:01:53.721Z,7.80
2019-05-14T19:04:21.419Z,7.50
2019-05-14T19:06:50.284Z,7.10
2019-05-14T19:09:19.084Z,7.50
2019-05-14T19:11:49.487Z,7.00
2019-05-14T19:14:18.859Z,6.80
2019-05-14T19:16:49.036Z,6.80
2019-05-14T19:19:20.485Z,7.10
2019-05-14T19:21:48.865Z,7.10
2019-05-14T19:24:19.015Z,6.50
2019-05-14T19:26:49.729Z,6.60
2019-05-14T19:29:18.722Z,6.50
2019-05-14T19:31:50.329Z,6.40
2019-05-14T19:34:19.360Z,6.60
2019-05-14T19:36:49.980Z,6.30
2019-05-14T19:39:18.895Z,6.10
2019-05-14T19:41:48.373Z,6.10
2019-05-14T19:44:19.163Z,6.40
2019-05-14T19:46:49.705Z,5.80
2019-05-14T19:49:18.617Z,5.90
2019-05-14T19:51:49.913Z,5.90
2019-05-14T19:54:19.450Z,5.70
2019-05-14T19:56:56.460Z,5.70
2019-05-14T19:59:19.230Z,5.60
2019-05-14T20:01:49.396Z,5.40
2019-05-14T20:04:18.442Z,5.20
2019-05-14T20:06:49.422Z,4.90
2019-05-14T20:09:17.979Z,4.80
2019-05-14T20:11:49.045Z,4.50
2019-05-14T20:14:17.458Z,4.50
2019-05-14T20:16:48.939Z,4.10
2019-05-14T20:19:19.139Z,4.10
2019-05-14T20:21:48.104Z,3.70
2019-05-14T20:24:18.903Z,3.70
2019-05-14T20:26:48.856Z,3.50
2019-05-14T20:29:19.498Z,3.60
2019-05-14T20:31:51.487Z,3.70
2019-05-14T20:34:20.272Z,3.70
2019-05-14T20:36:49.059Z,3.70
2019-05-14T20:39:18.182Z,3.30
2019-05-14T20:41:49.031Z,3.20
2019-05-14T20:44:18.905Z,3.10
2019-05-14T20:46:49.178Z,3.00
2019-05-14T20:49:19.073Z,3.20
2019-05-14T20:51:49.600Z,2.90
2019-05-14T20:54:18.545Z,2.80
2019-05-14T20:56:49.623Z,2.60
2019-05-14T20:59:19.116Z,2.50
2019-05-14T21:01:50.410Z,2.50
2019-05-14T21:04:19.360Z,2.50
2019-05-14T21:06:50.269Z,2.60
2019-05-14T21:09:19.266Z,2.70
2019-05-14T21:11:49.261Z,3.00
2019-05-14T21:14:18.432Z,2.70
2019-05-14T21:16:48.983Z,2.90
2019-05-14T21:19:17.984Z,3.00
2019-05-14T21:21:49.770Z,3.20
2019-05-14T21:24:22.008Z,3.00
2019-05-14T21:26:49.168Z,3.20
2019-05-14T21:29:17.969Z,3.00
2019-05-14T21:31:46.916Z,3.20
2019-05-14T21:34:15.727Z,3.00
2019-05-14T21:36:48.854Z,3.10
2019-05-14T21:39:18.865Z,3.20
2019-05-14T21:41:48.985Z,3.10
2019-05-14T21:44:18.827Z,3.30
2019-05-14T21:46:48.299Z,3.60
2019-05-14T21:49:19.039Z,3.30
2019-05-14T21:51:48.310Z,3.30
2019-05-14T21:54:18.945Z,3.30
2019-05-14T21:56:49.578Z,3.30
2019-05-14T21:59:18.993Z,3.70
2019-05-14T22:01:48.478Z,3.90
2019-05-14T22:04:18.600Z,3.90
2019-05-14T22:06:49.004Z,3.80
2019-05-14T22:09:18.034Z,3.50
2019-05-14T22:11:49.617Z,3.40
2019-05-14T22:14:18.821Z,3.30
2019-05-14T22:16:48.728Z,3.50
2019-05-14T22:19:19.041Z,3.60
2019-05-14T22:21:51.094Z,3.30
2019-05-14T22:24:21.135Z,3.30
2019-05-14T22:26:50.154Z,3.20
2019-05-14T22:29:19.092Z,3.30
2019-05-14T22:31:47.943Z,3.40
2019-05-14T22:34:18.418Z,3.30
2019-05-14T22:36:48.741Z,3.40
2019-05-14T22:39:19.855Z,3.20
2019-05-14T22:41:49.424Z,3.30
2019-05-14T22:44:18.690Z,3.00
2019-05-14T22:46:49.029Z,3.40
2019-05-14T22:49:19.091Z,3.00
2019-05-14T22:51:50.222Z,3.00
2019-05-14T22:54:20.891Z,3.10
2019-05-14T22:56:49.612Z,3.00
2019-05-14T22:59:20.521Z,3.30
2019-05-14T23:01:48.993Z,3.40
2019-05-14T23:04:18.210Z,3.30
2019-05-14T23:06:48.940Z,3.40
2019-05-14T23:09:19.061Z,3.70
2019-05-14T23:11:49.234Z,3.50
2019-05-14T23:14:18.556Z,3.50
2019-05-14T23:16:49.144Z,3.50
2019-05-14T23:19:18.702Z,3.70
2019-05-14T23:21:50.454Z,3.50
2019-05-14T23:24:19.256Z,3.80
2019-05-14T23:26:49.210Z,3.30
2019-05-14T23:29:18.333Z,3.40
2019-05-14T23:31:48.864Z,3.30
2019-05-14T23:34:18.995Z,3.30
2019-05-14T23:36:48.374Z,3.40
2019-05-14T23:39:17.466Z,3.60
2019-05-14T23:41:48.739Z,3.20
2019-05-14T23:44:19.141Z,3.00
2019-05-14T23:46:48.310Z,3.00
2019-05-14T23:49:18.406Z,3.00
2019-05-14T23:51:47.942Z,3.00
2019-05-14T23:54:18.225Z,3.00
2019-05-14T23:56:48.893Z,3.30
2019-05-14T23:59:18.405Z,2.90
